Time;durP1;ratioP1;P1;durP2;ratioP2;P2;SDS_P1;SDS_P2;PMS_P1;PMS_P2;Temp;Humidity;BMP_temperature;BMP_pressure;BME280_temperature;BME280_humidity;BME280_pressure;Samples;Min_cycle;Max_cycle;Signal;HPM_P1;HPM_P2
2021/03/19 00:01:07;;;;;;;32.83;18.60;;;;;;;2.09;100.00;101044.03;5204711;28;20025;-80
2021/03/19 00:03:37;;;;;;;36.08;19.05;;;;;;;2.24;100.00;101043.22;5201974;28;20360;-80
2021/03/19 00:06:08;;;;;;;34.10;18.02;;;;;;;2.20;100.00;101046.66;5185548;28;20044;-80
2021/03/19 00:08:38;;;;;;;37.70;18.70;;;;;;;2.11;100.00;101047.47;5203165;28;20464;-80
2021/03/19 00:11:08;;;;;;;34.22;18.23;;;;;;;2.19;100.00;101042.34;5200164;28;20076;-80
2021/03/19 00:13:39;;;;;;;36.72;19.33;;;;;;;2.22;100.00;101044.94;5226545;22;20044;-80
2021/03/19 00:16:10;;;;;;;36.25;19.15;;;;;;;2.19;100.00;101043.19;5220490;28;20029;-80
2021/03/19 00:18:41;;;;;;;35.90;18.48;;;;;;;2.19;100.00;101039.78;5216859;28;20041;-80
2021/03/19 00:21:11;;;;;;;39.47;19.88;;;;;;;2.12;100.00;101038.00;5202641;28;20645;-80
2021/03/19 00:23:41;;;;;;;41.40;19.95;;;;;;;2.14;100.00;101036.31;5205035;28;20078;-79
2021/03/19 00:26:12;;;;;;;40.08;19.55;;;;;;;2.04;100.00;101039.69;5196071;28;20036;-80
2021/03/19 00:28:42;;;;;;;37.30;20.00;;;;;;;2.11;100.00;101033.69;5198608;28;20056;-79
2021/03/19 00:31:12;;;;;;;37.88;18.15;;;;;;;1.88;100.00;101043.91;5199040;28;20060;-80
2021/03/19 00:33:43;;;;;;;37.13;19.00;;;;;;;1.98;100.00;101039.66;5201777;28;20038;-79
2021/03/19 00:36:13;;;;;;;35.92;18.67;;;;;;;1.97;100.00;101043.09;5210409;28;20040;-80
2021/03/19 00:38:43;;;;;;;39.78;19.08;;;;;;;1.58;100.00;101041.94;5201696;28;20390;-80
2021/03/19 00:41:14;;;;;;;38.92;20.63;;;;;;;1.47;100.00;101052.16;5201322;28;20036;-80
2021/03/19 00:43:44;;;;;;;38.25;20.15;;;;;;;1.59;100.00;101041.94;5200737;28;20025;-78
2021/03/19 00:46:14;;;;;;;39.35;19.20;;;;;;;1.80;100.00;101055.00;5195000;28;20029;-79
2021/03/19 00:48:45;;;;;;;34.13;17.88;;;;;;;1.72;100.00;101051.50;5198636;28;20030;-79
2021/03/19 00:51:15;;;;;;;36.60;17.70;;;;;;;1.56;100.00;101052.22;5197056;28;20656;-79
2021/03/19 00:53:45;;;;;;;34.72;17.63;;;;;;;1.61;100.00;101057.41;5199240;28;20037;-79
2021/03/19 00:56:16;;;;;;;38.72;18.38;;;;;;;1.65;100.00;101049.72;5203796;28;20463;-79
2021/03/19 00:58:46;;;;;;;36.25;18.33;;;;;;;1.47;100.00;101059.88;5201909;28;20033;-79
2021/03/19 01:01:16;;;;;;;37.95;18.23;;;;;;;1.42;100.00;101060.69;5204527;28;20104;-79
2021/03/19 01:03:47;;;;;;;40.00;19.08;;;;;;;1.45;100.00;101059.00;5197430;28;20037;-78
2021/03/19 01:06:17;;;;;;;37.47;18.30;;;;;;;1.46;100.00;101052.13;5201495;28;20849;-80
2021/03/19 01:08:47;;;;;;;38.30;18.45;;;;;;;1.38;100.00;101051.22;5204798;28;20032;-80
2021/03/19 01:11:17;;;;;;;35.13;18.17;;;;;;;1.38;100.00;101051.22;5198634;28;20033;-78
2021/03/19 01:13:48;;;;;;;39.33;18.73;;;;;;;1.20;100.00;101051.91;5199881;28;20107;-80
2021/03/19 01:16:18;;;;;;;39.08;18.65;;;;;;;1.13;100.00;101051.81;5197372;28;20030;-80
2021/03/19 01:18:49;;;;;;;34.40;17.15;;;;;;;1.16;100.00;101050.16;5202282;28;20395;-80
2021/03/19 01:21:19;;;;;;;34.42;17.60;;;;;;;1.15;100.00;101053.56;5204379;28;20021;-80
2021/03/19 01:23:49;;;;;;;35.45;17.27;;;;;;;0.98;100.00;101044.81;5200211;28;20687;-80
2021/03/19 01:26:20;;;;;;;35.65;18.20;;;;;;;0.91;100.00;101052.47;5199762;28;20025;-80
2021/03/19 01:28:50;;;;;;;34.65;17.33;;;;;;;0.84;100.00;101048.97;5196457;28;20406;-79
2021/03/19 01:31:21;;;;;;;33.83;17.52;;;;;;;1.05;100.00;101049.19;5201793;28;20113;-81
2021/03/19 01:33:51;;;;;;;34.38;17.02;;;;;;;1.08;100.00;101054.34;5202631;28;20060;-81
2021/03/19 01:36:22;;;;;;;32.70;16.80;;;;;;;0.95;100.00;101064.50;5201457;28;20433;-79
2021/03/19 01:38:52;;;;;;;32.65;16.58;;;;;;;0.81;100.00;101069.50;5197551;28;20029;-80
2021/03/19 01:41:22;;;;;;;32.55;16.73;;;;;;;0.67;100.00;101068.47;5197907;28;20031;-80
2021/03/19 01:44:02;;;;;;;34.38;16.45;;;;;;;0.57;100.00;101073.50;5201551;28;20026;-80
2021/03/19 01:47:09;;;;;;;31.70;16.60;;;;;;;0.61;100.00;101081.28;5201109;28;20097;-80
2021/03/19 01:50:17;;;;;;;29.98;15.50;;;;;;;0.55;100.00;101077.75;5196528;28;20026;-80
2021/03/19 01:53:25;;;;;;;32.58;16.35;;;;;;;0.57;100.00;101074.34;5197264;28;20593;-81
2021/03/19 01:56:32;;;;;;;32.65;16.25;;;;;;;0.67;100.00;101071.06;5197845;28;20511;-80
2021/03/19 01:59:40;;;;;;;34.92;16.33;;;;;;;0.58;100.00;101065.78;5200464;28;20037;-80
2021/03/19 02:02:48;;;;;;;34.78;17.20;;;;;;;0.81;100.00;101073.78;5201251;28;20040;-80
2021/03/19 02:05:56;;;;;;;35.45;17.42;;;;;;;0.80;100.00;101072.03;5197721;28;20033;-79
2021/03/19 02:09:03;;;;;;;33.63;16.27;;;;;;;0.74;100.00;101087.41;5203542;28;20507;-80
2021/03/19 02:12:11;;;;;;;34.88;16.25;;;;;;;0.83;100.00;101088.38;5204979;28;20029;-80
2021/03/19 02:15:18;;;;;;;30.92;15.60;;;;;;;0.79;100.00;101096.03;5203467;28;20037;-80
2021/03/19 02:18:26;;;;;;;30.15;14.98;;;;;;;0.63;100.00;101089.88;5203545;28;20021;-79
2021/03/19 02:21:34;;;;;;;31.60;15.63;;;;;;;0.75;100.00;101090.00;5200494;28;20510;-79
2021/03/19 02:24:41;;;;;;;32.80;15.02;;;;;;;0.62;100.00;101103.56;5194552;28;20032;-79
2021/03/19 02:27:49;;;;;;;30.08;15.07;;;;;;;0.75;100.00;101102.84;5198042;28;20104;-80
2021/03/19 02:30:57;;;;;;;30.50;15.82;;;;;;;0.58;100.00;101100.94;5202070;28;20096;-79
2021/03/19 02:33:27;;;;;;;31.55;14.95;;;;;;;0.57;100.00;101099.22;5203051;28;20510;-79
2021/03/19 02:35:59;;;;;;;32.65;14.65;;;;;;;0.41;100.00;101100.69;5203266;28;20063;-80
2021/03/19 02:38:29;;;;;;;29.27;15.07;;;;;;;0.30;100.00;101109.09;5202847;28;20031;-80
2021/03/19 02:40:59;;;;;;;33.92;16.02;;;;;;;0.19;100.00;101108.97;5203865;28;20025;-79
2021/03/19 02:43:30;;;;;;;32.58;15.20;;;;;;;0.31;100.00;101111.72;5202056;28;20025;-80
2021/03/19 02:46:01;;;;;;;30.70;15.80;;;;;;;0.39;100.00;101104.97;5203264;28;20037;-80
2021/03/19 02:48:32;;;;;;;35.03;15.15;;;;;;;0.48;100.00;101110.25;5201016;28;20079;-79
2021/03/19 02:51:03;;;;;;;30.63;14.35;;;;;;;0.34;100.00;101111.75;5202562;28;20563;-78
2021/03/19 02:53:35;;;;;;;29.27;14.77;;;;;;;0.28;100.00;101113.38;5202529;28;20037;-80
2021/03/19 02:56:08;;;;;;;30.67;15.02;;;;;;;0.39;100.00;101119.53;5204379;28;20029;-80
2021/03/19 02:58:38;;;;;;;28.23;14.60;;;;;;;0.49;100.00;101121.38;5202713;28;20052;-80
2021/03/19 03:01:09;;;;;;;30.10;14.75;;;;;;;0.46;100.00;101121.34;5204398;28;20509;-79
2021/03/19 03:03:40;;;;;;;24.75;13.95;;;;;;;0.55;100.00;101119.75;5209345;28;20021;-79
2021/03/19 03:06:10;;;;;;;26.98;13.57;;;;;;;0.48;100.00;101125.66;5204013;28;20112;-80
2021/03/19 03:08:41;;;;;;;25.63;13.82;;;;;;;0.35;100.00;101133.19;5202877;28;20539;-79
2021/03/19 03:11:11;;;;;;;25.23;13.95;;;;;;;0.39;100.00;101130.66;5208241;28;20025;-81
2021/03/19 03:13:41;;;;;;;27.05;13.45;;;;;;;0.46;100.00;101132.50;5211421;28;20059;-79
2021/03/19 03:16:12;;;;;;;26.63;13.75;;;;;;;0.43;100.00;101137.59;5202865;28;20051;-78
2021/03/19 03:18:42;;;;;;;26.60;13.43;;;;;;;0.45;100.00;101135.91;5201640;28;20079;-78
2021/03/19 03:21:12;;;;;;;27.40;13.93;;;;;;;0.54;100.00;101142.88;5203430;28;20056;-79
2021/03/19 03:23:43;;;;;;;25.27;13.65;;;;;;;0.34;100.00;101145.16;5202018;28;20628;-79
2021/03/19 03:26:13;;;;;;;26.10;14.27;;;;;;;0.44;100.00;101148.72;5203017;28;20124;-80
2021/03/19 03:28:43;;;;;;;25.58;14.35;;;;;;;0.46;100.00;101153.06;5203171;28;20026;-79
2021/03/19 03:31:14;;;;;;;26.25;13.73;;;;;;;0.43;100.00;101152.13;5201357;28;20052;-80
2021/03/19 03:33:44;;;;;;;32.13;14.10;;;;;;;0.41;100.00;101154.69;5202185;28;20048;-80
2021/03/19 03:36:15;;;;;;;25.73;13.55;;;;;;;0.16;100.00;101157.75;5201806;28;20029;-79
2021/03/19 03:38:45;;;;;;;24.02;13.98;;;;;;;-0.03;100.00;101161.72;5202480;28;20029;-80
2021/03/19 03:41:20;;;;;;;25.33;13.50;;;;;;;-0.03;100.00;101160.88;5202781;28;20142;-79
2021/03/19 03:43:50;;;;;;;26.25;13.75;;;;;;;0.21;100.00;101162.97;5200896;28;20087;-80
2021/03/19 03:46:24;;;;;;;25.35;14.07;;;;;;;0.15;100.00;101165.41;5199817;28;20029;-78
2021/03/19 03:48:56;;;;;;;29.85;14.45;;;;;;;0.12;100.00;101166.25;5200461;28;20031;-79
2021/03/19 03:51:29;;;;;;;28.88;15.05;;;;;;;0.15;100.00;101171.44;5203137;28;20105;-80
2021/03/19 03:53:59;;;;;;;26.90;15.07;;;;;;;-0.18;100.00;101175.16;5201367;28;20052;-80
2021/03/19 03:56:31;;;;;;;32.60;15.13;;;;;;;-0.02;100.00;101178.00;5205344;28;20030;-80
2021/03/19 03:59:02;;;;;;;28.50;14.10;;;;;;;-0.07;100.00;101181.34;5205112;28;20021;-80
2021/03/19 04:01:36;;;;;;;28.92;15.18;;;;;;;-0.03;100.00;101181.41;5199878;28;20544;-80
2021/03/19 04:04:10;;;;;;;26.70;14.85;;;;;;;0.12;100.00;101184.25;5204424;28;20120;-80
2021/03/19 04:06:40;;;;;;;27.75;14.30;;;;;;;0.10;100.00;101187.59;5202626;28;20033;-80
2021/03/19 04:09:11;;;;;;;27.45;14.15;;;;;;;0.09;100.00;101194.47;5205720;28;20026;-80
2021/03/19 04:11:42;;;;;;;29.42;13.82;;;;;;;0.03;100.00;101183.22;5204672;28;20534;-80
2021/03/19 04:14:12;;;;;;;24.80;13.82;;;;;;;-0.01;100.00;101179.72;5203019;28;20029;-80
2021/03/19 04:16:43;;;;;;;29.23;14.48;;;;;;;-0.07;100.00;101188.19;5203702;28;20549;-79
2021/03/19 04:19:13;;;;;;;28.00;14.35;;;;;;;0.08;100.00;101190.13;5206229;28;20025;-80
2021/03/19 04:21:44;;;;;;;28.05;14.32;;;;;;;0.09;100.00;101186.75;5203145;28;20028;-80
2021/03/19 04:24:14;;;;;;;27.52;14.90;;;;;;;-0.01;100.00;101201.97;5203421;28;20044;-80
2021/03/19 04:26:44;;;;;;;29.67;14.13;;;;;;;-0.02;100.00;101202.81;5204626;28;20095;-80
2021/03/19 04:29:15;;;;;;;25.08;13.80;;;;;;;-0.03;100.00;101199.41;5203163;28;20574;-80
2021/03/19 04:31:45;;;;;;;30.75;15.07;;;;;;;-0.31;100.00;101208.28;5206125;28;20045;-80
2021/03/19 04:34:15;;;;;;;26.45;14.52;;;;;;;-0.41;100.00;101209.84;5209565;28;20063;-80
2021/03/19 04:36:49;;;;;;;27.17;14.77;;;;;;;-0.13;100.00;101209.50;5207822;28;20036;-80
2021/03/19 04:39:25;;;;;;;28.25;14.00;;;;;;;-0.09;100.00;101210.38;5207325;28;20027;-80
2021/03/19 04:41:58;;;;;;;28.15;14.35;;;;;;;-0.04;100.00;101207.06;5207589;28;20037;-80
2021/03/19 04:44:35;;;;;;;27.90;15.10;;;;;;;-0.04;100.00;101216.50;5203882;28;20426;-80
2021/03/19 04:47:06;;;;;;;27.15;14.55;;;;;;;-0.03;100.00;101217.38;5207169;28;20037;-80
2021/03/19 04:49:37;;;;;;;28.50;14.75;;;;;;;-0.03;100.00;101223.34;5205911;28;20243;-80
2021/03/19 04:52:07;;;;;;;27.00;14.43;;;;;;;-0.08;100.00;101228.41;5206648;28;20372;-80
2021/03/19 04:54:38;;;;;;;28.95;14.05;;;;;;;-0.08;100.00;101222.44;5203015;28;20060;-80
2021/03/19 04:57:10;;;;;;;30.38;15.32;;;;;;;-0.11;100.00;101232.63;5208181;28;20035;-81
2021/03/19 04:59:40;;;;;;;29.70;15.02;;;;;;;-0.09;100.00;101236.06;5210390;28;20032;-80
2021/03/19 05:02:10;;;;;;;27.45;14.48;;;;;;;-0.13;100.00;101230.03;5203849;28;20022;-80
2021/03/19 05:04:41;;;;;;;29.38;15.23;;;;;;;-0.25;100.00;101228.97;5204851;28;20075;-80
2021/03/19 05:07:11;;;;;;;28.83;15.18;;;;;;;-0.16;100.00;101231.69;5206065;28;20021;-81
2021/03/19 05:09:41;;;;;;;30.40;15.88;;;;;;;-0.19;100.00;101236.78;5205002;28;20079;-79
2021/03/19 05:12:12;;;;;;;27.98;15.48;;;;;;;-0.31;100.00;101239.09;5202920;28;20028;-79
2021/03/19 05:14:42;;;;;;;29.25;15.73;;;;;;;-0.56;100.00;101242.06;5200691;28;20029;-80
2021/03/19 05:17:13;;;;;;;25.65;16.02;;;;;;;-0.62;100.00;101255.63;5206207;28;20033;-79
2021/03/19 05:19:43;;;;;;;27.38;15.30;;;;;;;-0.69;100.00;101251.19;5206504;28;20032;-80
2021/03/19 05:22:13;;;;;;;27.40;15.40;;;;;;;-0.63;100.00;101256.47;5206042;28;20026;-79
2021/03/19 05:24:44;;;;;;;28.55;16.15;;;;;;;-0.57;100.00;101255.72;5215309;28;20036;-79
2021/03/19 05:27:14;;;;;;;27.50;15.52;;;;;;;-0.65;100.00;101262.38;5222345;28;20029;-80
2021/03/19 05:29:46;;;;;;;28.23;15.77;;;;;;;-0.47;100.00;101258.50;5220711;28;20072;-79
2021/03/19 05:32:16;;;;;;;26.48;15.30;;;;;;;-0.45;100.00;101251.69;5221848;28;20021;-79
2021/03/19 05:34:47;;;;;;;29.48;15.13;;;;;;;-0.53;100.00;101250.66;5217847;28;20048;-80
2021/03/19 05:37:18;;;;;;;26.80;15.45;;;;;;;-0.62;100.00;101258.19;5212707;28;20029;-79
2021/03/19 05:39:49;;;;;;;30.55;16.38;;;;;;;-0.61;100.00;101259.03;5218979;28;20029;-79
2021/03/19 05:42:29;;;;;;;27.23;14.73;;;;;;;-0.46;100.00;101260.22;5216924;28;20447;-79
2021/03/19 05:45:10;;;;;;;30.30;14.63;;;;;;;-0.45;100.00;101268.78;5216805;28;20021;-80
2021/03/19 05:47:41;;;;;;;29.70;15.38;;;;;;;-0.30;100.00;101266.50;5212586;28;20029;-80
2021/03/19 05:50:29;;;;;;;28.73;15.80;;;;;;;-0.31;100.00;101272.47;5205335;28;20036;-80
2021/03/19 05:53:20;;;;;;;31.90;15.40;;;;;;;-0.23;100.00;101281.22;5202216;28;20032;-80
2021/03/19 05:55:51;;;;;;;31.60;15.48;;;;;;;0.02;100.00;101287.66;5208817;28;20029;-80
2021/03/19 05:58:28;;;;;;;27.02;15.07;;;;;;;-0.07;100.00;101286.63;5207408;28;20040;-80
2021/03/19 06:00:59;;;;;;;25.10;14.98;;;;;;;-0.02;100.00;101280.75;5202360;28;20033;-80
2021/03/19 06:03:29;;;;;;;32.72;15.75;;;;;;;-0.15;100.00;101285.66;5206686;28;20025;-80
2021/03/19 06:06:03;;;;;;;32.58;15.32;;;;;;;-0.18;100.00;101287.28;5208332;28;20044;-80
2021/03/19 06:08:37;;;;;;;27.98;16.05;;;;;;;-0.16;100.00;101291.63;5206954;28;20032;-81
2021/03/19 06:11:16;;;;;;;30.05;15.77;;;;;;;-0.20;100.00;101294.09;5208856;28;20029;-80
2021/03/19 06:14:15;;;;;;;26.13;15.48;;;;;;;-0.20;100.00;101291.53;5210319;28;20037;-78
2021/03/19 06:16:48;;;;;;;28.45;16.02;;;;;;;0.09;100.00;101299.81;5216206;28;20029;-80
2021/03/19 06:19:39;;;;;;;28.63;15.15;;;;;;;-0.18;100.00;101303.53;5217780;28;20029;-79
2021/03/19 06:22:49;;;;;;;26.83;15.48;;;;;;;-0.03;100.00;101310.69;5214939;28;20545;-80
2021/03/19 06:25:26;;;;;;;27.85;15.90;;;;;;;0.17;100.00;101308.50;5218042;28;20040;-79
2021/03/19 06:27:59;;;;;;;26.48;15.27;;;;;;;0.58;100.00;101314.34;5216659;28;20045;-80
2021/03/19 06:30:36;;;;;;;30.25;15.90;;;;;;;0.40;100.00;101312.31;5217123;28;20048;-80
2021/03/19 06:33:13;;;;;;;30.15;15.45;;;;;;;0.54;100.00;101317.72;5216920;28;20021;-79
2021/03/19 06:35:46;;;;;;;30.33;16.42;;;;;;;0.75;100.00;101326.59;5218357;28;20045;-79
2021/03/19 06:38:35;;;;;;;27.88;16.50;;;;;;;0.91;100.00;101323.44;5217037;28;20510;-80
2021/03/19 06:41:27;;;;;;;30.05;15.43;;;;;;;1.07;100.00;101317.66;5215740;28;20037;-79
2021/03/19 06:44:22;;;;;;;27.50;15.48;;;;;;;1.05;100.00;101327.06;5217021;28;20544;-80
2021/03/19 06:46:58;;;;;;;33.95;17.20;;;;;;;0.81;100.00;101331.88;5216935;28;20041;-79
2021/03/19 06:49:44;;;;;;;39.67;18.90;;;;;;;0.73;100.00;101345.44;5214669;28;20032;-80
2021/03/19 06:52:21;;;;;;;40.08;22.10;;;;;;;0.58;100.00;101338.34;5214363;28;20033;-80
2021/03/19 06:55:01;;;;;;;48.05;22.77;;;;;;;0.65;100.00;101350.47;5212687;28;20507;-79
2021/03/19 06:57:47;;;;;;;45.28;23.13;;;;;;;0.62;100.00;101350.41;5213750;28;20094;-79
2021/03/19 07:00:39;;;;;;;;;;;;;;;0.67;100.00;101341.06;5215905;28;20038;-80
2021/03/19 07:03:35;;;;;;;45.03;22.48;;;;;;;0.71;100.00;101344.56;5213953;28;19913;-79
2021/03/19 07:06:25;;;;;;;44.10;22.00;;;;;;;0.90;100.00;101347.44;5214394;28;20022;-80
2021/03/19 07:09:09;;;;;;;38.88;21.13;;;;;;;0.98;100.00;101351.00;5213312;28;20025;-79
2021/03/19 07:11:51;;;;;;;43.80;21.83;;;;;;;0.95;100.00;101344.94;5213210;28;20081;-80
2021/03/19 07:14:55;;;;;;;38.97;21.30;;;;;;;1.07;100.00;101348.53;5214382;28;20056;-80
2021/03/19 07:17:54;;;;;;;39.95;22.30;;;;;;;1.09;100.00;101359.72;5212444;28;20589;-80
2021/03/19 07:21:12;;;;;;;43.95;22.58;;;;;;;1.25;100.00;101358.25;5212739;28;20021;-80
2021/03/19 07:24:24;;;;;;;42.10;22.20;;;;;;;1.31;100.00;101354.06;5176542;28;20049;-80
2021/03/19 07:27:39;;;;;;;43.80;23.67;;;;;;;1.06;100.00;101359.69;5210764;28;20515;-79
2021/03/19 07:30:50;;;;;;;41.85;22.98;;;;;;;1.35;100.00;101357.53;5189666;28;20048;-79
2021/03/19 07:33:33;;;;;;;44.47;23.98;;;;;;;1.15;100.00;101358.97;5208583;28;20040;-79
2021/03/19 07:36:38;;;;;;;48.72;23.80;;;;;;;1.22;100.00;101359.06;5198906;28;20036;-80
2021/03/19 07:39:26;;;;;;;47.67;25.10;;;;;;;1.39;100.00;101360.16;5200920;28;20033;-80
2021/03/19 07:42:20;;;;;;;44.67;23.65;;;;;;;1.94;100.00;101360.88;5208661;28;20060;-79
2021/03/19 07:44:59;;;;;;;47.20;23.55;;;;;;;1.91;100.00;101370.28;5203197;28;20454;-80
2021/03/19 07:47:42;;;;;;;44.13;23.23;;;;;;;1.85;100.00;101372.81;5202910;28;20040;-79
2021/03/19 07:50:52;;;;;;;47.72;25.55;;;;;;;1.91;100.00;101380.59;5207332;28;20396;-79
2021/03/19 07:53:33;;;;;;;44.00;23.00;;;;;;;1.83;100.00;101375.34;5172637;28;20037;-80
2021/03/19 07:56:19;;;;;;;49.15;24.15;;;;;;;1.97;100.00;101380.69;5203778;28;20052;-80
2021/03/19 07:58:56;;;;;;;46.78;23.48;;;;;;;2.00;100.00;101375.56;5207002;28;20120;-80
2021/03/19 08:01:40;;;;;;;42.95;23.20;;;;;;;2.03;100.00;101380.75;5207008;28;20021;-80
2021/03/19 08:04:35;;;;;;;47.47;23.67;;;;;;;1.93;100.00;101391.78;5205076;28;20066;-78
2021/03/19 08:07:32;;;;;;;41.40;21.90;;;;;;;2.27;100.00;101394.78;5202112;28;20033;-80
2021/03/19 08:10:21;;;;;;;39.08;22.15;;;;;;;2.28;100.00;101393.03;5202303;28;20025;-78
2021/03/19 08:13:34;;;;;;;38.33;21.13;;;;;;;2.29;100.00;101403.38;5205688;28;20089;-78
2021/03/19 08:16:14;;;;;;;43.53;20.88;;;;;;;2.53;100.00;101413.94;5204208;28;20041;-78
2021/03/19 08:19:07;;;;;;;34.95;20.90;;;;;;;2.70;100.00;101416.72;5211693;28;20063;-80
2021/03/19 08:22:00;;;;;;;38.60;21.17;;;;;;;3.31;98.95;101413.75;5205368;28;20032;-80
2021/03/19 08:24:34;;;;;;;34.10;19.58;;;;;;;3.26;95.88;101407.69;5202260;28;20308;-80
2021/03/19 08:27:34;;;;;;;36.15;20.13;;;;;;;2.99;98.75;101425.59;5207024;28;20403;-79
2021/03/19 08:30:05;;;;;;;30.20;17.92;;;;;;;2.68;98.04;101423.56;5201209;28;20104;-79
2021/03/19 08:32:59;;;;;;;30.20;18.67;;;;;;;2.70;98.04;101425.28;5205050;28;20125;-78
2021/03/19 08:35:42;;;;;;;33.72;18.52;;;;;;;3.05;97.47;101433.38;5205622;28;20139;-80
2021/03/19 08:38:32;;;;;;;26.67;17.15;;;;;;;4.51;91.01;101434.19;5206383;28;20041;-80
2021/03/19 08:41:14;;;;;;;27.77;16.52;;;;;;;4.16;90.77;101433.19;5205161;28;20025;-80
2021/03/19 08:43:47;;;;;;;31.40;17.88;;;;;;;4.85;89.04;101433.38;5206238;28;20040;-80
2021/03/19 08:46:31;;;;;;;29.08;17.13;;;;;;;4.60;88.08;101438.53;5212896;28;20036;-79
2021/03/19 08:49:06;;;;;;;28.52;17.00;;;;;;;4.96;87.15;101434.25;5207433;28;20026;-77
2021/03/19 08:51:46;;;;;;;27.77;16.60;;;;;;;4.38;87.39;101435.00;5206263;28;20111;-78
2021/03/19 08:54:18;;;;;;;28.13;17.25;;;;;;;5.72;83.28;101428.16;5205170;28;20021;-79
2021/03/19 08:57:06;;;;;;;25.67;16.55;;;;;;;5.73;81.28;101422.94;5197972;28;20025;-79
2021/03/19 08:59:36;;;;;;;26.77;15.60;;;;;;;7.62;77.34;101419.16;5204369;28;20037;-79
2021/03/19 09:02:25;;;;;;;26.52;16.88;;;;;;;7.44;79.03;101430.63;5203756;28;20029;-79
2021/03/19 09:04:55;;;;;;;25.58;14.70;;;;;;;8.44;75.19;101423.41;5203629;28;20059;-79
2021/03/19 09:07:38;;;;;;;24.47;15.50;;;;;;;7.76;75.54;101425.06;5204254;28;20025;-79
2021/03/19 09:10:17;;;;;;;19.55;13.68;;;;;;;7.62;76.72;101440.84;5201838;28;20285;-80
2021/03/19 09:12:57;;;;;;;18.95;12.25;;;;;;;7.11;73.51;101436.97;5205497;28;20042;-80
2021/03/19 09:15:32;;;;;;;20.88;13.18;;;;;;;6.99;77.70;101450.94;5202939;28;20052;-79
2021/03/19 09:18:07;;;;;;;18.77;11.77;;;;;;;5.38;81.67;101458.44;5208952;28;20498;-79
2021/03/19 09:20:38;;;;;;;17.27;10.52;;;;;;;6.10;80.48;101452.28;5207758;28;20439;-79
2021/03/19 09:23:11;;;;;;;19.05;10.55;;;;;;;5.57;82.48;101449.75;5208114;28;20056;-79
2021/03/19 09:25:41;;;;;;;16.25;9.77;;;;;;;5.05;82.70;101448.94;5208952;28;20114;-79
2021/03/19 09:28:28;;;;;;;14.13;9.60;;;;;;;4.92;83.30;101455.81;5207086;28;20104;-79
2021/03/19 09:31:00;;;;;;;15.75;9.35;;;;;;;4.62;84.71;101453.19;5206843;28;20030;-79
2021/03/19 09:33:43;;;;;;;15.13;9.23;;;;;;;5.41;82.66;101452.38;5202832;28;20029;-79
2021/03/19 09:36:51;;;;;;;14.48;7.85;;;;;;;5.07;82.28;101450.66;5205960;28;20029;-79
2021/03/19 09:39:47;;;;;;;12.55;8.13;;;;;;;5.52;82.12;101451.50;5208630;28;20025;-79
2021/03/19 09:42:18;;;;;;;11.00;7.72;;;;;;;5.97;80.19;101450.56;5187978;28;20523;-79
2021/03/19 09:44:49;;;;;;;14.23;6.95;;;;;;;5.43;78.14;101451.50;5207397;28;20087;-79
2021/03/19 09:47:23;;;;;;;11.63;7.85;;;;;;;5.36;80.87;101448.06;5206793;28;20043;-79
2021/03/19 09:50:24;;;;;;;13.10;7.18;;;;;;;5.69;79.87;101451.47;5208192;28;20516;-79
2021/03/19 09:53:00;;;;;;;11.00;6.72;;;;;;;6.16;79.37;101447.03;5205478;28;20037;-79
2021/03/19 09:55:42;;;;;;;11.43;6.57;;;;;;;5.93;78.14;101459.25;5204119;28;20029;-79
2021/03/19 09:58:20;;;;;;;9.45;6.15;;;;;;;5.61;80.22;101456.66;5204680;28;20056;-79
2021/03/19 10:00:55;;;;;;;12.20;5.63;;;;;;;5.85;79.10;101458.38;5204649;28;20029;-79
2021/03/19 10:03:25;;;;;;;10.07;6.20;;;;;;;5.35;80.77;101457.56;5205921;28;20031;-79
2021/03/19 10:05:55;;;;;;;9.50;5.57;;;;;;;5.71;80.86;101450.59;5206275;28;20026;-79
2021/03/19 10:08:30;;;;;;;9.25;5.00;;;;;;;5.59;79.46;101454.97;5204418;28;20021;-79
2021/03/19 10:11:09;;;;;;;11.95;4.78;;;;;;;6.01;76.92;101460.94;5201215;28;20100;-79
2021/03/19 10:13:40;;;;;;;9.45;5.03;;;;;;;6.67;76.33;101458.06;5204778;28;20025;-79
2021/03/19 10:16:22;;;;;;;11.40;6.13;;;;;;;5.83;79.15;101466.19;5202582;28;20025;-79
2021/03/19 10:18:52;;;;;;;7.18;3.72;;;;;;;6.70;74.30;101457.16;5205928;28;20069;-79
2021/03/19 10:21:23;;;;;;;7.25;3.72;;;;;;;6.56;74.56;101449.47;5205636;28;20066;-79
2021/03/19 10:23:58;;;;;;;7.43;4.05;;;;;;;6.71;75.17;101454.56;5206350;28;20029;-79
2021/03/19 10:26:36;;;;;;;7.03;3.80;;;;;;;6.36;75.81;101460.81;5204971;28;20029;-79
2021/03/19 10:29:17;;;;;;;6.93;4.10;;;;;;;6.02;75.45;101448.81;5205000;28;20025;-79
2021/03/19 10:31:52;;;;;;;8.50;4.20;;;;;;;6.11;77.65;101461.78;5207095;28;20044;-79
2021/03/19 10:34:36;;;;;;;7.03;3.88;;;;;;;5.93;77.10;101454.91;5204489;28;20033;-79
2021/03/19 10:37:19;;;;;;;9.90;3.78;;;;;;;5.74;78.22;101460.13;5202291;28;20415;-79
2021/03/19 10:40:00;;;;;;;6.25;4.00;;;;;;;5.43;80.00;101464.47;5203658;28;20570;-79
2021/03/19 10:42:37;;;;;;;8.77;4.30;;;;;;;5.59;79.48;101465.34;5199128;28;20100;-79
2021/03/19 10:45:32;;;;;;;9.18;3.88;;;;;;;5.55;79.17;101459.28;5202360;28;20037;-79
2021/03/19 10:48:15;;;;;;;9.18;4.18;;;;;;;5.70;78.99;101460.97;5203272;28;20040;-79
2021/03/19 10:51:00;;;;;;;8.75;3.80;;;;;;;5.53;78.75;101468.78;5204774;28;20026;-79
2021/03/19 10:53:53;;;;;;;8.83;4.13;;;;;;;5.68;79.83;101473.09;5200611;28;20025;-79
2021/03/19 10:56:26;;;;;;;8.73;3.70;;;;;;;5.60;79.36;101469.66;5205764;28;20025;-79
2021/03/19 10:59:19;;;;;;;7.57;3.90;;;;;;;5.56;79.83;101466.19;5205260;28;20025;-79
2021/03/19 11:01:50;;;;;;;5.85;3.80;;;;;;;5.29;80.04;101467.09;5206378;28;20551;-79
2021/03/19 11:04:30;;;;;;;6.70;3.55;;;;;;;5.52;78.96;101476.56;5205096;28;20021;-79
2021/03/19 11:07:26;;;;;;;5.38;3.33;;;;;;;5.76;76.99;101479.13;5205733;28;20061;-79
2021/03/19 11:10:06;;;;;;;6.28;3.40;;;;;;;6.00;76.57;101476.50;5191829;28;20033;-79
2021/03/19 11:12:51;;;;;;;7.28;3.30;;;;;;;6.35;74.56;101479.84;5202150;28;20411;-79
2021/03/19 11:15:39;;;;;;;8.63;3.00;;;;;;;6.33;72.21;101476.41;5203188;28;20108;-79
2021/03/19 11:18:20;;;;;;;5.32;2.78;;;;;;;6.23;71.63;101474.72;5204918;28;20025;-79
2021/03/19 11:21:08;;;;;;;7.85;3.22;;;;;;;6.14;72.83;101475.63;5205203;28;20033;-78
2021/03/19 11:23:38;;;;;;;6.30;3.30;;;;;;;6.22;74.68;101488.56;5199216;28;20034;-79
2021/03/19 11:26:30;;;;;;;8.13;4.05;;;;;;;5.63;77.20;101480.00;5204824;28;20712;-79
2021/03/19 11:29:12;;;;;;;8.57;4.10;;;;;;;5.33;78.25;101485.19;5200927;28;20037;-79
2021/03/19 11:32:06;;;;;;;9.60;4.70;;;;;;;5.40;80.90;101489.53;5204063;28;20545;-79
2021/03/19 11:34:41;;;;;;;9.95;4.28;;;;;;;5.36;79.15;101498.16;5197889;28;20025;-79
2021/03/19 11:37:11;;;;;;;6.75;3.45;;;;;;;5.48;80.17;101492.97;5199571;28;20032;-79
2021/03/19 11:39:41;;;;;;;9.63;4.80;;;;;;;5.23;79.31;101495.56;5191330;28;20025;-78
2021/03/19 11:42:14;;;;;;;8.82;5.18;;;;;;;5.59;80.65;101509.41;5198263;28;21050;-79
2021/03/19 11:44:47;;;;;;;11.57;4.85;;;;;;;5.56;79.82;101507.66;5197370;28;20040;-79
2021/03/19 11:47:33;;;;;;;8.52;4.15;;;;;;;5.84;78.65;101501.63;5198031;28;20514;-79
2021/03/19 11:50:16;;;;;;;;;;;;;;;5.72;77.93;101517.16;5199333;28;20076;-79
2021/03/19 11:52:49;;;;;;;8.93;3.65;;;;;;;5.59;76.94;101509.41;5197643;28;19923;-79
2021/03/19 11:55:23;;;;;;;7.47;4.07;;;;;;;5.48;76.56;101514.59;5198498;28;20040;-79
2021/03/19 11:57:53;;;;;;;7.68;3.60;;;;;;;5.42;76.94;101521.50;5204727;28;20025;-79
2021/03/19 12:00:29;;;;;;;8.13;3.80;;;;;;;5.05;76.83;101519.75;5202024;28;20040;-79
2021/03/19 12:03:02;;;;;;;5.80;3.63;;;;;;;5.28;76.29;101528.41;5197877;28;20032;-79
2021/03/19 12:05:33;;;;;;;6.95;3.80;;;;;;;5.42;76.25;101517.16;5199331;28;20091;-79
2021/03/19 12:08:04;;;;;;;5.60;2.97;;;;;;;5.57;74.55;101516.31;5197436;28;20471;-79